sensor_id;sensor_type;location;lat;lon;timestamp;pressure;altitude;pressure_sealevel;temperature;humidity
22755;BME280;11544;42.020;23.094;2022-11-15T00:00:54;97815.34;;;4.80;100.00
22755;BME280;11544;42.020;23.094;2022-11-15T00:03:23;97811.91;;;4.74;100.00
22755;BME280;11544;42.020;23.094;2022-11-15T00:05:50;97809.38;;;4.57;100.00
22755;BME280;11544;42.020;23.094;2022-11-15T00:08:17;97808.44;;;4.85;100.00
22755;BME280;11544;42.020;23.094;2022-11-15T00:10:54;97815.25;;;5.05;100.00
22755;BME280;11544;42.020;23.094;2022-11-15T00:13:22;97805.75;;;5.12;100.00
22755;BME280;11544;42.020;23.094;2022-11-15T00:15:48;97805.81;;;4.99;100.00
22755;BME280;11544;42.020;23.094;2022-11-15T00:18:15;97810.09;;;5.08;100.00
22755;BME280;11544;42.020;23.094;2022-11-15T00:20:43;97808.44;;;4.92;100.00
22755;BME280;11544;42.020;23.094;2022-11-15T00:23:10;97809.25;;;4.98;100.00
22755;BME280;11544;42.020;23.094;2022-11-15T00:25:36;97810.22;;;4.60;100.00
22755;BME280;11544;42.020;23.094;2022-11-15T00:28:03;97811.06;;;4.67;100.00
22755;BME280;11544;42.020;23.094;2022-11-15T00:30:30;97817.97;;;4.59;100.00
22755;BME280;11544;42.020;23.094;2022-11-15T00:33:02;97811.91;;;4.77;100.00
22755;BME280;11544;42.020;23.094;2022-11-15T00:35:32;97812.81;;;4.68;100.00
22755;BME280;11544;42.020;23.094;2022-11-15T00:38:00;97819.59;;;5.00;100.00
22755;BME280;11544;42.020;23.094;2022-11-15T00:40:27;97817.97;;;4.57;100.00
22755;BME280;11544;42.020;23.094;2022-11-15T00:42:54;97817.97;;;4.62;100.00
22755;BME280;11544;42.020;23.094;2022-11-15T00:45:21;97815.38;;;4.77;100.00
22755;BME280;11544;42.020;23.094;2022-11-15T00:47:47;97814.50;;;4.71;100.00
22755;BME280;11544;42.020;23.094;2022-11-15T00:50:14;97822.31;;;4.54;100.00
22755;BME280;11544;42.020;23.094;2022-11-15T00:52:41;97824.00;;;4.55;100.00
22755;BME280;11544;42.020;23.094;2022-11-15T00:55:16;97818.84;;;4.70;100.00
22755;BME280;11544;42.020;23.094;2022-11-15T00:57:43;97815.41;;;4.43;100.00
22755;BME280;11544;42.020;23.094;2022-11-15T01:00:11;97820.53;;;4.65;100.00
22755;BME280;11544;42.020;23.094;2022-11-15T01:02:38;97821.41;;;4.53;100.00
22755;BME280;11544;42.020;23.094;2022-11-15T01:05:05;97830.06;;;4.21;100.00
22755;BME280;11544;42.020;23.094;2022-11-15T01:07:32;97823.19;;;4.02;100.00
22755;BME280;11544;42.020;23.094;2022-11-15T01:09:59;97822.31;;;4.38;100.00
22755;BME280;11544;42.020;23.094;2022-11-15T01:12:26;97820.59;;;4.39;100.00
22755;BME280;11544;42.020;23.094;2022-11-15T01:14:53;97824.91;;;4.29;100.00
22755;BME280;11544;42.020;23.094;2022-11-15T01:17:20;97822.28;;;4.55;100.00
22755;BME280;11544;42.020;23.094;2022-11-15T01:19:47;97820.59;;;4.30;100.00
22755;BME280;11544;42.020;23.094;2022-11-15T01:22:14;97817.97;;;4.57;100.00
22755;BME280;11544;42.020;23.094;2022-11-15T01:24:40;97816.28;;;4.41;100.00
22755;BME280;11544;42.020;23.094;2022-11-15T01:27:07;97812.84;;;4.34;100.00
22755;BME280;11544;42.020;23.094;2022-11-15T01:29:34;97811.94;;;4.63;100.00
22755;BME280;11544;42.020;23.094;2022-11-15T01:32:01;97823.16;;;4.30;100.00
22755;BME280;11544;42.020;23.094;2022-11-15T01:34:28;97820.53;;;4.76;100.00
22755;BME280;11544;42.020;23.094;2022-11-15T01:36:55;97824.00;;;4.58;100.00
22755;BME280;11544;42.020;23.094;2022-11-15T01:39:21;97822.31;;;4.17;100.00
22755;BME280;11544;42.020;23.094;2022-11-15T01:41:48;97833.50;;;3.91;100.00
22755;BME280;11544;42.020;23.094;2022-11-15T01:47:16;97822.28;;;4.41;100.00
22755;BME280;11544;42.020;23.094;2022-11-15T01:50:02;97827.47;;;4.44;100.00
22755;BME280;11544;42.020;23.094;2022-11-15T01:52:31;97834.34;;;3.84;100.00
22755;BME280;11544;42.020;23.094;2022-11-15T01:57:29;97831.78;;;4.13;100.00
22755;BME280;11544;42.020;23.094;2022-11-15T01:59:57;97834.34;;;3.93;100.00
22755;BME280;11544;42.020;23.094;2022-11-15T02:02:24;97831.75;;;3.63;100.00
22755;BME280;11544;42.020;23.094;2022-11-15T02:04:52;97842.91;;;3.60;100.00
22755;BME280;11544;42.020;23.094;2022-11-15T02:07:20;97831.78;;;3.86;100.00
22755;BME280;11544;42.020;23.094;2022-11-15T02:09:48;97821.44;;;4.18;100.00
22755;BME280;11544;42.020;23.094;2022-11-15T02:12:19;97818.88;;;4.42;100.00
22755;BME280;11544;42.020;23.094;2022-11-15T02:14:49;97829.22;;;4.12;100.00
22755;BME280;11544;42.020;23.094;2022-11-15T02:23:01;97825.75;;;3.76;100.00
22755;BME280;11544;42.020;23.094;2022-11-15T02:25:45;97823.19;;;3.80;100.00
22755;BME280;11544;42.020;23.094;2022-11-15T02:38:22;97823.97;;;3.49;100.00
22755;BME280;11544;42.020;23.094;2022-11-15T02:43:49;97823.13;;;3.54;100.00
22755;BME280;11544;42.020;23.094;2022-11-15T02:46:28;97830.78;;;3.28;100.00
22755;BME280;11544;42.020;23.094;2022-11-15T02:49:22;97822.28;;;3.71;100.00
22755;BME280;11544;42.020;23.094;2022-11-15T02:51:51;97824.88;;;3.69;100.00
22755;BME280;11544;42.020;23.094;2022-11-15T02:54:22;97823.13;;;3.59;100.00
22755;BME280;11544;42.020;23.094;2022-11-15T02:56:52;97835.97;;;3.31;100.00
22755;BME280;11544;42.020;23.094;2022-11-15T03:05:10;97836.03;;;3.57;100.00
22755;BME280;11544;42.020;23.094;2022-11-15T03:08:01;97832.59;;;3.62;100.00
22755;BME280;11544;42.020;23.094;2022-11-15T03:13:01;97822.28;;;3.60;100.00
22755;BME280;11544;42.020;23.094;2022-11-15T03:15:38;97824.03;;;3.93;100.00
22755;BME280;11544;42.020;23.094;2022-11-15T03:18:32;97819.72;;;3.69;100.00
22755;BME280;11544;42.020;23.094;2022-11-15T03:21:03;97825.56;;;3.13;100.00
22755;BME280;11544;42.020;23.094;2022-11-15T03:23:32;97831.59;;;3.21;100.00
22755;BME280;11544;42.020;23.094;2022-11-15T03:26:00;97835.13;;;3.43;100.00
22755;BME280;11544;42.020;23.094;2022-11-15T03:28:32;97826.41;;;3.06;100.00
22755;BME280;11544;42.020;23.094;2022-11-15T03:31:02;97823.13;;;3.51;100.00
22755;BME280;11544;42.020;23.094;2022-11-15T03:33:51;97821.41;;;3.46;100.00
22755;BME280;11544;42.020;23.094;2022-11-15T03:36:22;97816.25;;;3.46;100.00
22755;BME280;11544;42.020;23.094;2022-11-15T03:38:54;97813.56;;;3.10;100.00
22755;BME280;11544;42.020;23.094;2022-11-15T03:41:29;97812.69;;;3.16;100.00
22755;BME280;11544;42.020;23.094;2022-11-15T03:44:14;97801.56;;;3.22;100.00
22755;BME280;11544;42.020;23.094;2022-11-15T03:46:47;97799.09;;;3.75;100.00
22755;BME280;11544;42.020;23.094;2022-11-15T03:49:24;97800.78;;;3.46;100.00
22755;BME280;11544;42.020;23.094;2022-11-15T03:51:52;97799.03;;;3.37;100.00
22755;BME280;11544;42.020;23.094;2022-11-15T03:54:36;97792.16;;;3.44;100.00
22755;BME280;11544;42.020;23.094;2022-11-15T03:57:03;97793.06;;;3.79;100.00
22755;BME280;11544;42.020;23.094;2022-11-15T03:59:32;97774.16;;;4.22;100.00
22755;BME280;11544;42.020;23.094;2022-11-15T04:01:59;97775.88;;;3.77;100.00
22755;BME280;11544;42.020;23.094;2022-11-15T04:04:26;97781.81;;;3.33;100.00
22755;BME280;11544;42.020;23.094;2022-11-15T04:06:53;97787.00;;;3.39;100.00
22755;BME280;11544;42.020;23.094;2022-11-15T04:09:19;97787.84;;;3.36;100.00
22755;BME280;11544;42.020;23.094;2022-11-15T04:11:46;97777.56;;;3.46;100.00
22755;BME280;11544;42.020;23.094;2022-11-15T04:14:13;97777.59;;;3.70;100.00
22755;BME280;11544;42.020;23.094;2022-11-15T04:16:40;97769.84;;;3.56;100.00
22755;BME280;11544;42.020;23.094;2022-11-15T04:19:09;97765.59;;;3.88;100.00
22755;BME280;11544;42.020;23.094;2022-11-15T04:21:54;97757.84;;;3.83;100.00
22755;BME280;11544;42.020;23.094;2022-11-15T04:24:40;97768.16;;;3.62;100.00
22755;BME280;11544;42.020;23.094;2022-11-15T04:27:06;97764.72;;;3.69;100.00
22755;BME280;11544;42.020;23.094;2022-11-15T04:29:34;97760.38;;;3.51;100.00
22755;BME280;11544;42.020;23.094;2022-11-15T04:32:05;97753.53;;;4.05;100.00
22755;BME280;11544;42.020;23.094;2022-11-15T04:34:32;97752.66;;;3.98;100.00
22755;BME280;11544;42.020;23.094;2022-11-15T04:36:59;97766.41;;;3.59;100.00
22755;BME280;11544;42.020;23.094;2022-11-15T04:39:39;97747.50;;;3.75;100.00
22755;BME280;11544;42.020;23.094;2022-11-15T04:42:07;97765.56;;;3.69;100.00
22755;BME280;11544;42.020;23.094;2022-11-15T04:44:34;97759.53;;;3.56;100.00
22755;BME280;11544;42.020;23.094;2022-11-15T04:47:01;97756.97;;;3.93;100.00
22755;BME280;11544;42.020;23.094;2022-11-15T04:49:28;97746.66;;;3.75;100.00
22755;BME280;11544;42.020;23.094;2022-11-15T04:51:55;97743.22;;;3.97;100.00
22755;BME280;11544;42.020;23.094;2022-11-15T04:54:22;97736.34;;;3.89;100.00
22755;BME280;11544;42.020;23.094;2022-11-15T04:56:48;97738.88;;;4.19;100.00
22755;BME280;11544;42.020;23.094;2022-11-15T04:59:15;97736.34;;;3.84;100.00
22755;BME280;11544;42.020;23.094;2022-11-15T05:01:42;97738.06;;;3.76;100.00
22755;BME280;11544;42.020;23.094;2022-11-15T05:04:11;97733.75;;;3.67;100.00
22755;BME280;11544;42.020;23.094;2022-11-15T05:06:51;97741.44;;;4.29;100.00
22755;BME280;11544;42.020;23.094;2022-11-15T05:09:19;97738.88;;;4.15;100.00
22755;BME280;11544;42.020;23.094;2022-11-15T05:11:46;97731.19;;;3.93;100.00
22755;BME280;11544;42.020;23.094;2022-11-15T05:14:13;97732.88;;;3.94;100.00
22755;BME280;11544;42.020;23.094;2022-11-15T05:16:41;97742.38;;;3.92;100.00
22755;BME280;11544;42.020;23.094;2022-11-15T05:19:08;97750.94;;;3.82;100.00
22755;BME280;11544;42.020;23.094;2022-11-15T05:21:35;97750.97;;;3.84;100.00
22755;BME280;11544;42.020;23.094;2022-11-15T05:24:02;97756.97;;;3.78;100.00
22755;BME280;11544;42.020;23.094;2022-11-15T05:26:29;97765.56;;;3.74;100.00
22755;BME280;11544;42.020;23.094;2022-11-15T05:28:58;97768.97;;;3.64;100.00
22755;BME280;11544;42.020;23.094;2022-11-15T05:31:26;97769.88;;;3.59;100.00
22755;BME280;11544;42.020;23.094;2022-11-15T05:33:54;97770.72;;;3.62;100.00
22755;BME280;11544;42.020;23.094;2022-11-15T05:36:25;97773.31;;;3.74;100.00
22755;BME280;11544;42.020;23.094;2022-11-15T05:38:54;97776.72;;;3.45;100.00
22755;BME280;11544;42.020;23.094;2022-11-15T05:41:30;97775.00;;;3.63;100.00
22755;BME280;11544;42.020;23.094;2022-11-15T05:43:58;97769.00;;;3.71;100.00
22755;BME280;11544;42.020;23.094;2022-11-15T05:46:26;97764.72;;;3.86;100.00
22755;BME280;11544;42.020;23.094;2022-11-15T05:48:53;97769.84;;;3.75;100.00
22755;BME280;11544;42.020;23.094;2022-11-15T05:51:22;97762.13;;;4.10;100.00
22755;BME280;11544;42.020;23.094;2022-11-15T05:53:50;97761.25;;;3.90;100.00
22755;BME280;11544;42.020;23.094;2022-11-15T05:56:18;97763.00;;;3.86;100.00
22755;BME280;11544;42.020;23.094;2022-11-15T05:58:45;97765.56;;;3.71;100.00
22755;BME280;11544;42.020;23.094;2022-11-15T06:01:12;97768.13;;;3.75;100.00
22755;BME280;11544;42.020;23.094;2022-11-15T06:03:39;97771.59;;;3.74;100.00
22755;BME280;11544;42.020;23.094;2022-11-15T06:06:06;97762.13;;;3.96;100.00
22755;BME280;11544;42.020;23.094;2022-11-15T06:08:39;97762.16;;;3.86;100.00
22755;BME280;11544;42.020;23.094;2022-11-15T06:11:14;97781.72;;;4.94;100.00
22755;BME280;11544;42.020;23.094;2022-11-15T06:13:41;97770.69;;;4.38;100.00
22755;BME280;11544;42.020;23.094;2022-11-15T06:16:08;97776.75;;;3.84;100.00
22755;BME280;11544;42.020;23.094;2022-11-15T06:18:35;97774.56;;;5.41;100.00
22755;BME280;11544;42.020;23.094;2022-11-15T06:21:03;97771.47;;;6.16;100.00
22755;BME280;11544;42.020;23.094;2022-11-15T06:23:34;97775.97;;;5.88;100.00
22755;BME280;11544;42.020;23.094;2022-11-15T06:26:02;97780.13;;;6.17;100.00
22755;BME280;11544;42.020;23.094;2022-11-15T06:28:31;97785.41;;;6.01;100.00
22755;BME280;11544;42.020;23.094;2022-11-15T06:31:11;97781.16;;;5.96;100.00
22755;BME280;11544;42.020;23.094;2022-11-15T06:33:39;97780.72;;;5.21;100.00
22755;BME280;11544;42.020;23.094;2022-11-15T06:36:09;97777.56;;;6.12;100.00
22755;BME280;11544;42.020;23.094;2022-11-15T06:38:43;97775.50;;;5.32;100.00
22755;BME280;11544;42.020;23.094;2022-11-15T06:41:13;97783.44;;;4.95;100.00
22755;BME280;11544;42.020;23.094;2022-11-15T06:43:40;97774.94;;;4.53;100.00
22755;BME280;11544;42.020;23.094;2022-11-15T06:46:08;97783.38;;;5.03;100.00
22755;BME280;11544;42.020;23.094;2022-11-15T06:48:35;97780.72;;;5.24;100.00
22755;BME280;11544;42.020;23.094;2022-11-15T06:51:03;97777.44;;;4.92;100.00
22755;BME280;11544;42.020;23.094;2022-11-15T06:53:31;97783.13;;;5.55;100.00
22755;BME280;11544;42.020;23.094;2022-11-15T06:56:04;97771.06;;;5.54;100.00
22755;BME280;11544;42.020;23.094;2022-11-15T06:58:34;97763.59;;;4.97;100.00
22755;BME280;11544;42.020;23.094;2022-11-15T07:01:04;97766.34;;;4.51;100.00
22755;BME280;11544;42.020;23.094;2022-11-15T07:03:34;97772.22;;;4.99;100.00
22755;BME280;11544;42.020;23.094;2022-11-15T07:06:01;97769.06;;;5.93;100.00
22755;BME280;11544;42.020;23.094;2022-11-15T07:08:33;97773.53;;;5.71;100.00
22755;BME280;11544;42.020;23.094;2022-11-15T07:11:07;97769.56;;;5.18;100.00
22755;BME280;11544;42.020;23.094;2022-11-15T07:13:35;97767.09;;;4.88;100.00
22755;BME280;11544;42.020;23.094;2022-11-15T07:16:07;97766.13;;;6.34;100.00
22755;BME280;11544;42.020;23.094;2022-11-15T07:18:36;97759.09;;;6.47;100.00
22755;BME280;11544;42.020;23.094;2022-11-15T07:21:05;97767.47;;;7.42;100.00
22755;BME280;11544;42.020;23.094;2022-11-15T07:23:32;97767.88;;;7.10;100.00
22755;BME280;11544;42.020;23.094;2022-11-15T07:25:59;97759.56;;;7.48;100.00
22755;BME280;11544;42.020;23.094;2022-11-15T07:28:27;97764.09;;;7.91;100.00
22755;BME280;11544;42.020;23.094;2022-11-15T07:30:54;97755.03;;;7.64;100.00
22755;BME280;11544;42.020;23.094;2022-11-15T07:33:21;97749.75;;;7.70;100.00
22755;BME280;11544;42.020;23.094;2022-11-15T07:35:48;97755.00;;;7.66;100.00
22755;BME280;11544;42.020;23.094;2022-11-15T07:38:16;97743.25;;;7.97;100.00
22755;BME280;11544;42.020;23.094;2022-11-15T07:40:46;97753.34;;;7.60;100.00
22755;BME280;11544;42.020;23.094;2022-11-15T07:43:13;97759.63;;;7.47;100.00
22755;BME280;11544;42.020;23.094;2022-11-15T07:45:42;97744.28;;;7.87;100.00
22755;BME280;11544;42.020;23.094;2022-11-15T07:48:09;97741.91;;;7.13;100.00
22755;BME280;11544;42.020;23.094;2022-11-15T07:50:37;97741.66;;;7.30;100.00
22755;BME280;11544;42.020;23.094;2022-11-15T07:53:07;97744.19;;;6.69;100.00
22755;BME280;11544;42.020;23.094;2022-11-15T07:55:35;97732.94;;;7.91;100.00
22755;BME280;11544;42.020;23.094;2022-11-15T07:58:03;97747.31;;;7.58;100.00
22755;BME280;11544;42.020;23.094;2022-11-15T08:00:30;97746.63;;;8.02;100.00
22755;BME280;11544;42.020;23.094;2022-11-15T08:03:02;97744.94;;;7.98;100.00
22755;BME280;11544;42.020;23.094;2022-11-15T08:05:29;97752.69;;;7.47;100.00
22755;BME280;11544;42.020;23.094;2022-11-15T08:07:56;97744.53;;;7.72;100.00
22755;BME280;11544;42.020;23.094;2022-11-15T08:10:23;97743.81;;;8.15;100.00
22755;BME280;11544;42.020;23.094;2022-11-15T08:12:58;97739.50;;;8.63;100.00
22755;BME280;11544;42.020;23.094;2022-11-15T08:15:28;97735.59;;;8.41;100.00
22755;BME280;11544;42.020;23.094;2022-11-15T08:18:01;97722.69;;;8.81;100.00
22755;BME280;11544;42.020;23.094;2022-11-15T08:20:29;97717.06;;;8.11;98.63
22755;BME280;11544;42.020;23.094;2022-11-15T08:22:58;97719.78;;;8.03;99.24
22755;BME280;11544;42.020;23.094;2022-11-15T08:25:26;97720.34;;;8.21;98.39
22755;BME280;11544;42.020;23.094;2022-11-15T08:27:55;97710.41;;;8.46;98.72
22755;BME280;11544;42.020;23.094;2022-11-15T08:30:23;97712.19;;;8.41;96.62
22755;BME280;11544;42.020;23.094;2022-11-15T08:32:51;97714.75;;;8.87;96.73
22755;BME280;11544;42.020;23.094;2022-11-15T08:35:19;97710.09;;;9.03;94.48
22755;BME280;11544;42.020;23.094;2022-11-15T08:37:54;97699.94;;;8.49;93.85
22755;BME280;11544;42.020;23.094;2022-11-15T08:40:21;97702.75;;;8.35;94.71
22755;BME280;11544;42.020;23.094;2022-11-15T08:42:49;97701.25;;;8.22;95.67
22755;BME280;11544;42.020;23.094;2022-11-15T08:45:15;97704.44;;;8.38;96.33
22755;BME280;11544;42.020;23.094;2022-11-15T08:47:44;97702.31;;;9.03;94.00
22755;BME280;11544;42.020;23.094;2022-11-15T08:50:19;97697.16;;;8.60;92.72
22755;BME280;11544;42.020;23.094;2022-11-15T08:52:47;97701.25;;;8.23;94.67
22755;BME280;11544;42.020;23.094;2022-11-15T08:55:17;97699.69;;;8.61;94.16
22755;BME280;11544;42.020;23.094;2022-11-15T08:57:44;97700.94;;;8.42;94.51
22755;BME280;11544;42.020;23.094;2022-11-15T09:00:11;97694.78;;;9.30;94.17
22755;BME280;11544;42.020;23.094;2022-11-15T09:02:39;97687.91;;;9.27;91.26
22755;BME280;11544;42.020;23.094;2022-11-15T09:05:07;97675.28;;;9.84;89.47
22755;BME280;11544;42.020;23.094;2022-11-15T09:07:34;97681.44;;;9.44;89.61
22755;BME280;11544;42.020;23.094;2022-11-15T09:10:02;97666.44;;;9.89;89.00
22755;BME280;11544;42.020;23.094;2022-11-15T09:12:29;97667.22;;;9.59;90.35
22755;BME280;11544;42.020;23.094;2022-11-15T09:14:57;97646.31;;;9.96;85.88
22755;BME280;11544;42.020;23.094;2022-11-15T09:17:24;97645.00;;;9.80;86.22
22755;BME280;11544;42.020;23.094;2022-11-15T09:19:51;97635.09;;;9.94;85.94
22755;BME280;11544;42.020;23.094;2022-11-15T09:22:18;97627.50;;;10.17;83.21
22755;BME280;11544;42.020;23.094;2022-11-15T09:24:48;97629.13;;;9.90;83.78
22755;BME280;11544;42.020;23.094;2022-11-15T09:27:15;97621.34;;;9.87;84.89
22755;BME280;11544;42.020;23.094;2022-11-15T09:29:59;97608.84;;;10.34;85.14
22755;BME280;11544;42.020;23.094;2022-11-15T09:32:28;97606.44;;;9.94;84.24
22755;BME280;11544;42.020;23.094;2022-11-15T09:35:04;97597.44;;;10.06;84.06
22755;BME280;11544;42.020;23.094;2022-11-15T09:37:32;97594.19;;;9.98;84.64
22755;BME280;11544;42.020;23.094;2022-11-15T09:40:00;97583.28;;;10.16;84.70
22755;BME280;11544;42.020;23.094;2022-11-15T09:45:26;97563.38;;;11.56;81.28
22755;BME280;11544;42.020;23.094;2022-11-15T09:50:50;97558.00;;;11.34;78.46
22755;BME280;11544;42.020;23.094;2022-11-15T09:53:31;97552.03;;;11.30;80.51
22755;BME280;11544;42.020;23.094;2022-11-15T09:56:28;97542.81;;;11.72;78.87
22755;BME280;11544;42.020;23.094;2022-11-15T09:59:21;97534.97;;;12.22;77.93
22755;BME280;11544;42.020;23.094;2022-11-15T10:02:00;97534.88;;;11.75;79.02
22755;BME280;11544;42.020;23.094;2022-11-15T10:04:31;97525.56;;;12.40;77.86
22755;BME280;11544;42.020;23.094;2022-11-15T10:09:42;97521.81;;;12.47;76.46
22755;BME280;11544;42.020;23.094;2022-11-15T10:12:13;97510.34;;;12.27;76.55
22755;BME280;11544;42.020;23.094;2022-11-15T10:14:40;97505.78;;;12.33;77.89
22755;BME280;11544;42.020;23.094;2022-11-15T10:19:50;97502.47;;;12.05;80.43
22755;BME280;11544;42.020;23.094;2022-11-15T10:27:34;97474.38;;;12.56;81.24
22755;BME280;11544;42.020;23.094;2022-11-15T10:30:04;97466.25;;;12.64;80.22
22755;BME280;11544;42.020;23.094;2022-11-15T10:32:43;97455.78;;;13.28;77.80
22755;BME280;11544;42.020;23.094;2022-11-15T10:35:24;97450.41;;;12.89;77.62
22755;BME280;11544;42.020;23.094;2022-11-15T10:37:51;97449.97;;;12.78;78.83
22755;BME280;11544;42.020;23.094;2022-11-15T10:40:22;97443.66;;;13.26;77.51
22755;BME280;11544;42.020;23.094;2022-11-15T10:43:15;97429.81;;;13.22;75.89
22755;BME280;11544;42.020;23.094;2022-11-15T10:45:43;97425.88;;;13.34;75.66
22755;BME280;11544;42.020;23.094;2022-11-15T10:50:45;97416.78;;;12.14;79.80
22755;BME280;11544;42.020;23.094;2022-11-15T10:53:26;97413.88;;;12.87;78.95
22755;BME280;11544;42.020;23.094;2022-11-15T10:55:57;97415.19;;;13.59;75.67
22755;BME280;11544;42.020;23.094;2022-11-15T11:01:16;97394.50;;;13.53;74.26
22755;BME280;11544;42.020;23.094;2022-11-15T11:03:45;97378.38;;;13.62;75.00
22755;BME280;11544;42.020;23.094;2022-11-15T11:06:25;97377.16;;;13.09;75.38
22755;BME280;11544;42.020;23.094;2022-11-15T11:09:02;97369.97;;;13.14;76.02
22755;BME280;11544;42.020;23.094;2022-11-15T11:11:48;97368.06;;;13.78;74.42
22755;BME280;11544;42.020;23.094;2022-11-15T11:14:28;97357.31;;;13.84;72.45
22755;BME280;11544;42.020;23.094;2022-11-15T11:33:52;97322.50;;;14.36;69.78
22755;BME280;11544;42.020;23.094;2022-11-15T11:36:39;97324.63;;;14.10;69.92
22755;BME280;11544;42.020;23.094;2022-11-15T11:45:05;97313.28;;;14.10;70.04
22755;BME280;11544;42.020;23.094;2022-11-15T11:47:40;97306.34;;;14.09;69.55
22755;BME280;11544;42.020;23.094;2022-11-15T11:50:26;97303.41;;;13.79;70.25
22755;BME280;11544;42.020;23.094;2022-11-15T11:55:33;97295.25;;;14.57;68.60
22755;BME280;11544;42.020;23.094;2022-11-15T11:58:26;97287.44;;;14.02;69.93
22755;BME280;11544;42.020;23.094;2022-11-15T12:01:18;97281.31;;;14.38;69.77
22755;BME280;11544;42.020;23.094;2022-11-15T12:03:52;97273.72;;;14.14;70.53
22755;BME280;11544;42.020;23.094;2022-11-15T12:09:03;97259.16;;;14.63;69.24
22755;BME280;11544;42.020;23.094;2022-11-15T12:14:31;97237.81;;;14.86;67.20
22755;BME280;11544;42.020;23.094;2022-11-15T12:16:59;97236.91;;;14.70;67.33
22755;BME280;11544;42.020;23.094;2022-11-15T12:19:26;97234.22;;;14.36;69.27
22755;BME280;11544;42.020;23.094;2022-11-15T12:22:19;97229.28;;;14.65;68.46
22755;BME280;11544;42.020;23.094;2022-11-15T12:27:40;97204.59;;;15.18;66.34
22755;BME280;11544;42.020;23.094;2022-11-15T12:30:19;97211.84;;;14.97;67.50
22755;BME280;11544;42.020;23.094;2022-11-15T12:32:54;97205.22;;;14.90;67.22
22755;BME280;11544;42.020;23.094;2022-11-15T12:35:26;97202.56;;;15.08;68.49
22755;BME280;11544;42.020;23.094;2022-11-15T12:37:55;97201.19;;;15.16;68.03
22755;BME280;11544;42.020;23.094;2022-11-15T12:40:25;97200.00;;;15.06;68.38
22755;BME280;11544;42.020;23.094;2022-11-15T12:45:44;97201.56;;;15.26;67.65
22755;BME280;11544;42.020;23.094;2022-11-15T12:58:42;97187.19;;;15.00;69.23
22755;BME280;11544;42.020;23.094;2022-11-15T13:01:10;97183.84;;;14.98;69.38
22755;BME280;11544;42.020;23.094;2022-11-15T13:06:51;97176.81;;;14.98;69.35
22755;BME280;11544;42.020;23.094;2022-11-15T13:12:47;97170.97;;;14.93;69.39
22755;BME280;11544;42.020;23.094;2022-11-15T13:15:51;97173.84;;;14.71;70.10
22755;BME280;11544;42.020;23.094;2022-11-15T13:17:54;97159.25;;;14.83;70.35
22755;BME280;11544;42.020;23.094;2022-11-15T13:20:29;97159.22;;;14.67;70.74
22755;BME280;11544;42.020;23.094;2022-11-15T13:23:08;97160.25;;;14.80;70.58
22755;BME280;11544;42.020;23.094;2022-11-15T13:28:17;97148.84;;;14.81;70.37
22755;BME280;11544;42.020;23.094;2022-11-15T13:30:55;97150.72;;;14.62;70.51
22755;BME280;11544;42.020;23.094;2022-11-15T13:33:33;97157.63;;;14.65;71.22
22755;BME280;11544;42.020;23.094;2022-11-15T13:38:44;97153.50;;;14.59;71.41
22755;BME280;11544;42.020;23.094;2022-11-15T13:41:23;97157.50;;;14.66;71.63
22755;BME280;11544;42.020;23.094;2022-11-15T13:43:52;97159.28;;;14.66;71.49
22755;BME280;11544;42.020;23.094;2022-11-15T13:46:23;97143.97;;;14.74;71.00
22755;BME280;11544;42.020;23.094;2022-11-15T13:48:55;97150.66;;;14.64;70.84
22755;BME280;11544;42.020;23.094;2022-11-15T13:54:25;97147.50;;;14.57;71.58
22755;BME280;11544;42.020;23.094;2022-11-15T13:56:59;97152.09;;;14.52;71.35
22755;BME280;11544;42.020;23.094;2022-11-15T13:59:30;97148.94;;;14.45;72.11
22755;BME280;11544;42.020;23.094;2022-11-15T14:02:03;97150.13;;;14.57;71.81
22755;BME280;11544;42.020;23.094;2022-11-15T14:04:45;97139.72;;;14.55;72.12
22755;BME280;11544;42.020;23.094;2022-11-15T14:07:18;97143.19;;;14.56;72.00
22755;BME280;11544;42.020;23.094;2022-11-15T14:09:49;97149.91;;;14.44;72.47
22755;BME280;11544;42.020;23.094;2022-11-15T14:14:51;97141.41;;;14.56;72.47
22755;BME280;11544;42.020;23.094;2022-11-15T14:19:55;97145.06;;;14.36;73.06
22755;BME280;11544;42.020;23.094;2022-11-15T14:22:27;97149.19;;;14.40;73.33
22755;BME280;11544;42.020;23.094;2022-11-15T14:25:06;97151.41;;;14.15;74.37
22755;BME280;11544;42.020;23.094;2022-11-15T14:27:34;97150.47;;;13.98;75.19
22755;BME280;11544;42.020;23.094;2022-11-15T14:30:04;97156.47;;;14.01;75.27
22755;BME280;11544;42.020;23.094;2022-11-15T14:32:58;97158.72;;;14.08;75.49
22755;BME280;11544;42.020;23.094;2022-11-15T14:35:25;97162.13;;;14.10;75.20
22755;BME280;11544;42.020;23.094;2022-11-15T14:37:52;97157.78;;;13.92;75.39
22755;BME280;11544;42.020;23.094;2022-11-15T14:40:21;97160.09;;;13.81;75.92
22755;BME280;11544;42.020;23.094;2022-11-15T14:42:49;97157.28;;;13.66;76.11
22755;BME280;11544;42.020;23.094;2022-11-15T14:45:19;97153.44;;;13.73;76.01
22755;BME280;11544;42.020;23.094;2022-11-15T14:47:47;97154.28;;;13.74;76.49
22755;BME280;11544;42.020;23.094;2022-11-15T14:50:17;97160.75;;;13.67;76.66
22755;BME280;11544;42.020;23.094;2022-11-15T14:52:45;97158.84;;;13.88;76.15
22755;BME280;11544;42.020;23.094;2022-11-15T14:55:24;97160.75;;;13.67;75.86
22755;BME280;11544;42.020;23.094;2022-11-15T14:57:52;97163.94;;;13.73;76.14
22755;BME280;11544;42.020;23.094;2022-11-15T15:00:20;97154.72;;;13.65;75.99
22755;BME280;11544;42.020;23.094;2022-11-15T15:02:48;97152.50;;;13.57;76.86
22755;BME280;11544;42.020;23.094;2022-11-15T15:05:20;97157.53;;;13.43;78.11
22755;BME280;11544;42.020;23.094;2022-11-15T15:07:47;97161.53;;;13.32;78.24
22755;BME280;11544;42.020;23.094;2022-11-15T15:10:16;97160.38;;;13.19;79.21